sensor_id;sensor_type;location;lat;lon;timestamp;P1;durP1;ratioP1;P2;durP2;ratioP2
5456;SDS011;2751;49.802;9.944;2023-02-22T00:00:24;17.17;;;11.43;;
5456;SDS011;2751;49.802;9.944;2023-02-22T00:03:00;13.50;;;11.60;;
5456;SDS011;2751;49.802;9.944;2023-02-22T00:05:28;16.90;;;11.77;;
5456;SDS011;2751;49.802;9.944;2023-02-22T00:07:56;16.97;;;12.07;;
5456;SDS011;2751;49.802;9.944;2023-02-22T00:10:25;17.63;;;11.13;;
5456;SDS011;2751;49.802;9.944;2023-02-22T00:12:53;14.47;;;11.33;;
5456;SDS011;2751;49.802;9.944;2023-02-22T00:15:21;14.70;;;11.10;;
5456;SDS011;2751;49.802;9.944;2023-02-22T00:17:52;14.13;;;11.67;;
5456;SDS011;2751;49.802;9.944;2023-02-22T00:20:19;16.53;;;12.10;;
5456;SDS011;2751;49.802;9.944;2023-02-22T00:22:47;16.37;;;11.10;;
5456;SDS011;2751;49.802;9.944;2023-02-22T00:25:19;16.40;;;12.27;;
5456;SDS011;2751;49.802;9.944;2023-02-22T00:27:47;18.10;;;10.93;;
5456;SDS011;2751;49.802;9.944;2023-02-22T00:30:17;15.50;;;11.50;;
5456;SDS011;2751;49.802;9.944;2023-02-22T00:32:46;17.03;;;11.60;;
5456;SDS011;2751;49.802;9.944;2023-02-22T00:35:15;17.90;;;11.63;;
5456;SDS011;2751;49.802;9.944;2023-02-22T00:37:46;12.63;;;10.30;;
5456;SDS011;2751;49.802;9.944;2023-02-22T00:40:14;18.73;;;11.63;;
5456;SDS011;2751;49.802;9.944;2023-02-22T00:42:45;18.00;;;11.47;;
5456;SDS011;2751;49.802;9.944;2023-02-22T00:45:12;17.60;;;11.17;;
5456;SDS011;2751;49.802;9.944;2023-02-22T00:47:41;17.23;;;11.23;;
5456;SDS011;2751;49.802;9.944;2023-02-22T00:50:08;18.20;;;12.00;;
5456;SDS011;2751;49.802;9.944;2023-02-22T00:52:35;16.47;;;12.17;;
5456;SDS011;2751;49.802;9.944;2023-02-22T00:55:03;8.60;;;7.33;;
5456;SDS011;2751;49.802;9.944;2023-02-22T00:57:31;9.07;;;7.10;;
5456;SDS011;2751;49.802;9.944;2023-02-22T01:00:01;10.73;;;7.60;;
5456;SDS011;2751;49.802;9.944;2023-02-22T01:02:36;8.87;;;7.10;;
5456;SDS011;2751;49.802;9.944;2023-02-22T01:05:03;9.73;;;7.73;;
5456;SDS011;2751;49.802;9.944;2023-02-22T01:07:30;10.37;;;8.20;;
5456;SDS011;2751;49.802;9.944;2023-02-22T01:09:56;11.60;;;7.10;;
5456;SDS011;2751;49.802;9.944;2023-02-22T01:12:23;9.40;;;7.40;;
5456;SDS011;2751;49.802;9.944;2023-02-22T01:14:51;12.00;;;7.67;;
5456;SDS011;2751;49.802;9.944;2023-02-22T01:17:22;12.50;;;8.07;;
5456;SDS011;2751;49.802;9.944;2023-02-22T01:19:49;10.43;;;7.10;;
5456;SDS011;2751;49.802;9.944;2023-02-22T01:22:16;8.77;;;7.13;;
5456;SDS011;2751;49.802;9.944;2023-02-22T01:24:44;11.00;;;8.00;;
5456;SDS011;2751;49.802;9.944;2023-02-22T01:27:11;12.60;;;8.30;;
5456;SDS011;2751;49.802;9.944;2023-02-22T01:29:37;14.07;;;8.97;;
5456;SDS011;2751;49.802;9.944;2023-02-22T01:32:05;12.67;;;8.57;;
5456;SDS011;2751;49.802;9.944;2023-02-22T01:34:33;17.33;;;9.17;;
5456;SDS011;2751;49.802;9.944;2023-02-22T01:37:00;20.20;;;10.67;;
5456;SDS011;2751;49.802;9.944;2023-02-22T01:39:27;15.57;;;10.87;;
5456;SDS011;2751;49.802;9.944;2023-02-22T01:41:54;20.50;;;11.50;;
5456;SDS011;2751;49.802;9.944;2023-02-22T01:44:25;24.50;;;10.73;;
5456;SDS011;2751;49.802;9.944;2023-02-22T01:46:55;23.17;;;10.80;;
5456;SDS011;2751;49.802;9.944;2023-02-22T01:49:23;23.40;;;10.50;;
5456;SDS011;2751;49.802;9.944;2023-02-22T01:51:56;22.70;;;11.33;;
5456;SDS011;2751;49.802;9.944;2023-02-22T01:54:28;28.93;;;12.40;;
5456;SDS011;2751;49.802;9.944;2023-02-22T01:56:59;26.47;;;11.90;;
5456;SDS011;2751;49.802;9.944;2023-02-22T01:59:31;31.00;;;12.20;;
5456;SDS011;2751;49.802;9.944;2023-02-22T02:02:01;29.27;;;13.07;;
5456;SDS011;2751;49.802;9.944;2023-02-22T02:04:29;28.50;;;12.73;;
5456;SDS011;2751;49.802;9.944;2023-02-22T02:06:59;24.33;;;13.70;;
5456;SDS011;2751;49.802;9.944;2023-02-22T02:09:29;22.27;;;12.70;;
5456;SDS011;2751;49.802;9.944;2023-02-22T02:11:58;35.70;;;13.70;;
5456;SDS011;2751;49.802;9.944;2023-02-22T02:14:27;28.00;;;12.20;;
5456;SDS011;2751;49.802;9.944;2023-02-22T02:16:56;26.57;;;11.70;;
5456;SDS011;2751;49.802;9.944;2023-02-22T02:19:27;42.33;;;12.70;;
5456;SDS011;2751;49.802;9.944;2023-02-22T02:22:09;34.67;;;11.43;;
5456;SDS011;2751;49.802;9.944;2023-02-22T02:24:50;38.53;;;11.70;;
5456;SDS011;2751;49.802;9.944;2023-02-22T02:27:54;33.93;;;12.80;;
5456;SDS011;2751;49.802;9.944;2023-02-22T02:33:40;55.53;;;13.17;;
5456;SDS011;2751;49.802;9.944;2023-02-22T02:36:11;66.10;;;14.83;;
5456;SDS011;2751;49.802;9.944;2023-02-22T02:38:44;76.90;;;13.90;;
5456;SDS011;2751;49.802;9.944;2023-02-22T02:41:19;60.30;;;14.80;;
5456;SDS011;2751;49.802;9.944;2023-02-22T02:43:52;80.90;;;14.10;;
5456;SDS011;2751;49.802;9.944;2023-02-22T02:46:25;59.73;;;13.40;;
5456;SDS011;2751;49.802;9.944;2023-02-22T02:48:58;29.57;;;13.50;;
5456;SDS011;2751;49.802;9.944;2023-02-22T02:51:29;34.10;;;13.80;;
5456;SDS011;2751;49.802;9.944;2023-02-22T02:54:00;37.83;;;13.70;;
5456;SDS011;2751;49.802;9.944;2023-02-22T02:56:29;22.00;;;12.67;;
5456;SDS011;2751;49.802;9.944;2023-02-22T02:58:56;46.27;;;14.00;;
5456;SDS011;2751;49.802;9.944;2023-02-22T03:01:29;36.80;;;13.73;;
5456;SDS011;2751;49.802;9.944;2023-02-22T03:04:21;34.03;;;12.93;;
5456;SDS011;2751;49.802;9.944;2023-02-22T03:09:58;33.63;;;14.83;;
5456;SDS011;2751;49.802;9.944;2023-02-22T03:12:37;28.30;;;13.00;;
5456;SDS011;2751;49.802;9.944;2023-02-22T03:15:16;25.73;;;15.70;;
5456;SDS011;2751;49.802;9.944;2023-02-22T03:17:52;28.57;;;14.10;;
5456;SDS011;2751;49.802;9.944;2023-02-22T03:23:00;27.00;;;15.93;;
5456;SDS011;2751;49.802;9.944;2023-02-22T03:25:32;35.40;;;14.87;;
5456;SDS011;2751;49.802;9.944;2023-02-22T03:28:04;21.83;;;14.50;;
5456;SDS011;2751;49.802;9.944;2023-02-22T03:30:36;22.10;;;13.50;;
5456;SDS011;2751;49.802;9.944;2023-02-22T03:33:07;21.60;;;13.13;;
5456;SDS011;2751;49.802;9.944;2023-02-22T03:35:40;23.47;;;14.23;;
5456;SDS011;2751;49.802;9.944;2023-02-22T03:38:12;24.53;;;15.07;;
5456;SDS011;2751;49.802;9.944;2023-02-22T03:40:44;25.50;;;14.63;;
5456;SDS011;2751;49.802;9.944;2023-02-22T03:43:16;24.07;;;14.10;;
5456;SDS011;2751;49.802;9.944;2023-02-22T03:45:47;21.27;;;15.40;;
5456;SDS011;2751;49.802;9.944;2023-02-22T03:48:18;31.07;;;14.37;;
5456;SDS011;2751;49.802;9.944;2023-02-22T03:50:49;23.80;;;13.57;;
5456;SDS011;2751;49.802;9.944;2023-02-22T03:53:16;25.10;;;15.37;;
5456;SDS011;2751;49.802;9.944;2023-02-22T03:55:44;25.40;;;14.93;;
5456;SDS011;2751;49.802;9.944;2023-02-22T03:58:15;20.77;;;14.07;;
5456;SDS011;2751;49.802;9.944;2023-02-22T04:00:45;22.80;;;13.90;;
5456;SDS011;2751;49.802;9.944;2023-02-22T04:03:17;21.67;;;14.13;;
5456;SDS011;2751;49.802;9.944;2023-02-22T04:05:44;30.77;;;14.60;;
5456;SDS011;2751;49.802;9.944;2023-02-22T04:08:13;27.17;;;14.50;;
5456;SDS011;2751;49.802;9.944;2023-02-22T04:10:40;40.77;;;10.90;;
5456;SDS011;2751;49.802;9.944;2023-02-22T04:13:07;23.97;;;9.93;;
5456;SDS011;2751;49.802;9.944;2023-02-22T04:15:34;29.43;;;10.60;;
5456;SDS011;2751;49.802;9.944;2023-02-22T04:18:01;35.37;;;9.97;;
5456;SDS011;2751;49.802;9.944;2023-02-22T04:20:28;42.03;;;11.30;;
5456;SDS011;2751;49.802;9.944;2023-02-22T04:22:55;36.90;;;11.77;;
5456;SDS011;2751;49.802;9.944;2023-02-22T04:25:24;28.83;;;11.17;;
5456;SDS011;2751;49.802;9.944;2023-02-22T04:27:51;39.47;;;12.33;;
5456;SDS011;2751;49.802;9.944;2023-02-22T04:30:18;26.73;;;12.00;;
5456;SDS011;2751;49.802;9.944;2023-02-22T04:32:45;29.43;;;10.93;;
5456;SDS011;2751;49.802;9.944;2023-02-22T04:35:12;29.30;;;10.80;;
5456;SDS011;2751;49.802;9.944;2023-02-22T04:37:39;47.63;;;11.40;;
5456;SDS011;2751;49.802;9.944;2023-02-22T04:40:06;45.70;;;12.23;;
5456;SDS011;2751;49.802;9.944;2023-02-22T04:42:37;46.40;;;13.80;;
5456;SDS011;2751;49.802;9.944;2023-02-22T04:45:05;27.90;;;10.40;;
5456;SDS011;2751;49.802;9.944;2023-02-22T04:47:33;20.43;;;10.40;;
5456;SDS011;2751;49.802;9.944;2023-02-22T04:50:00;29.80;;;11.77;;
5456;SDS011;2751;49.802;9.944;2023-02-22T04:52:27;47.77;;;12.17;;
5456;SDS011;2751;49.802;9.944;2023-02-22T04:54:53;24.93;;;13.40;;
5456;SDS011;2751;49.802;9.944;2023-02-22T04:57:20;27.60;;;15.80;;
5456;SDS011;2751;49.802;9.944;2023-02-22T04:59:49;19.77;;;12.47;;
5456;SDS011;2751;49.802;9.944;2023-02-22T05:02:16;25.10;;;13.17;;
5456;SDS011;2751;49.802;9.944;2023-02-22T05:04:43;27.80;;;13.77;;
5456;SDS011;2751;49.802;9.944;2023-02-22T05:07:10;22.23;;;14.60;;
5456;SDS011;2751;49.802;9.944;2023-02-22T05:09:37;25.60;;;14.80;;
5456;SDS011;2751;49.802;9.944;2023-02-22T05:12:04;27.07;;;14.97;;
5456;SDS011;2751;49.802;9.944;2023-02-22T05:14:32;23.30;;;15.97;;
5456;SDS011;2751;49.802;9.944;2023-02-22T05:17:01;24.57;;;14.33;;
5456;SDS011;2751;49.802;9.944;2023-02-22T05:19:28;23.33;;;15.03;;
5456;SDS011;2751;49.802;9.944;2023-02-22T05:21:55;21.70;;;15.23;;
5456;SDS011;2751;49.802;9.944;2023-02-22T05:24:22;23.23;;;15.70;;
5456;SDS011;2751;49.802;9.944;2023-02-22T05:26:49;21.83;;;15.40;;
5456;SDS011;2751;49.802;9.944;2023-02-22T05:29:17;24.17;;;15.83;;
5456;SDS011;2751;49.802;9.944;2023-02-22T05:31:44;22.93;;;15.40;;
5456;SDS011;2751;49.802;9.944;2023-02-22T05:34:12;20.60;;;15.60;;
5456;SDS011;2751;49.802;9.944;2023-02-22T05:36:39;21.40;;;14.60;;
5456;SDS011;2751;49.802;9.944;2023-02-22T05:39:06;21.53;;;14.33;;
5456;SDS011;2751;49.802;9.944;2023-02-22T05:41:33;20.73;;;15.00;;
5456;SDS011;2751;49.802;9.944;2023-02-22T05:44:00;20.80;;;14.90;;
5456;SDS011;2751;49.802;9.944;2023-02-22T05:46:28;25.50;;;14.30;;
5456;SDS011;2751;49.802;9.944;2023-02-22T05:48:54;19.50;;;14.40;;
5456;SDS011;2751;49.802;9.944;2023-02-22T05:51:23;20.13;;;13.70;;
5456;SDS011;2751;49.802;9.944;2023-02-22T05:53:50;18.70;;;13.23;;
5456;SDS011;2751;49.802;9.944;2023-02-22T05:56:20;20.70;;;13.80;;
5456;SDS011;2751;49.802;9.944;2023-02-22T05:58:48;18.87;;;13.03;;
5456;SDS011;2751;49.802;9.944;2023-02-22T06:01:15;16.73;;;11.83;;
5456;SDS011;2751;49.802;9.944;2023-02-22T06:03:42;15.90;;;11.90;;
5456;SDS011;2751;49.802;9.944;2023-02-22T06:06:12;27.30;;;11.80;;
5456;SDS011;2751;49.802;9.944;2023-02-22T06:08:41;16.73;;;11.40;;
5456;SDS011;2751;49.802;9.944;2023-02-22T06:11:08;19.23;;;11.37;;
5456;SDS011;2751;49.802;9.944;2023-02-22T06:13:35;15.50;;;11.37;;
5456;SDS011;2751;49.802;9.944;2023-02-22T06:16:02;21.70;;;12.63;;
5456;SDS011;2751;49.802;9.944;2023-02-22T06:18:29;17.97;;;11.30;;
5456;SDS011;2751;49.802;9.944;2023-02-22T06:20:57;13.97;;;11.07;;
5456;SDS011;2751;49.802;9.944;2023-02-22T06:23:24;10.97;;;9.27;;
5456;SDS011;2751;49.802;9.944;2023-02-22T06:25:53;10.80;;;8.73;;
5456;SDS011;2751;49.802;9.944;2023-02-22T06:28:20;9.73;;;8.80;;
5456;SDS011;2751;49.802;9.944;2023-02-22T06:30:47;9.57;;;8.57;;
5456;SDS011;2751;49.802;9.944;2023-02-22T06:33:14;8.90;;;8.00;;
5456;SDS011;2751;49.802;9.944;2023-02-22T06:35:41;8.63;;;7.83;;
5456;SDS011;2751;49.802;9.944;2023-02-22T06:38:09;10.20;;;8.53;;
5456;SDS011;2751;49.802;9.944;2023-02-22T06:40:36;11.83;;;8.60;;
5456;SDS011;2751;49.802;9.944;2023-02-22T06:43:04;9.53;;;8.47;;
5456;SDS011;2751;49.802;9.944;2023-02-22T06:45:31;10.80;;;9.10;;
5456;SDS011;2751;49.802;9.944;2023-02-22T06:47:58;9.10;;;8.20;;
5456;SDS011;2751;49.802;9.944;2023-02-22T06:50:25;8.93;;;8.00;;
5456;SDS011;2751;49.802;9.944;2023-02-22T06:52:55;10.70;;;6.80;;
5456;SDS011;2751;49.802;9.944;2023-02-22T06:55:24;7.13;;;6.43;;
5456;SDS011;2751;49.802;9.944;2023-02-22T06:57:52;7.77;;;6.93;;
5456;SDS011;2751;49.802;9.944;2023-02-22T07:00:21;8.03;;;7.33;;
5456;SDS011;2751;49.802;9.944;2023-02-22T07:02:50;7.70;;;6.50;;
5456;SDS011;2751;49.802;9.944;2023-02-22T07:05:19;7.90;;;7.10;;
5456;SDS011;2751;49.802;9.944;2023-02-22T07:07:47;8.13;;;6.80;;
5456;SDS011;2751;49.802;9.944;2023-02-22T07:10:17;8.90;;;7.30;;
5456;SDS011;2751;49.802;9.944;2023-02-22T07:12:46;8.27;;;7.43;;
5456;SDS011;2751;49.802;9.944;2023-02-22T07:15:14;8.27;;;6.97;;
5456;SDS011;2751;49.802;9.944;2023-02-22T07:17:43;8.23;;;6.80;;
5456;SDS011;2751;49.802;9.944;2023-02-22T07:20:10;7.23;;;6.50;;
5456;SDS011;2751;49.802;9.944;2023-02-22T07:22:37;7.27;;;6.30;;
5456;SDS011;2751;49.802;9.944;2023-02-22T07:25:05;7.53;;;6.73;;
5456;SDS011;2751;49.802;9.944;2023-02-22T07:27:35;6.37;;;5.77;;
5456;SDS011;2751;49.802;9.944;2023-02-22T07:30:02;8.70;;;5.87;;
5456;SDS011;2751;49.802;9.944;2023-02-22T07:32:30;6.63;;;6.00;;
5456;SDS011;2751;49.802;9.944;2023-02-22T07:34:58;6.77;;;6.07;;
5456;SDS011;2751;49.802;9.944;2023-02-22T07:37:26;6.40;;;5.80;;
5456;SDS011;2751;49.802;9.944;2023-02-22T07:39:53;6.43;;;5.77;;
5456;SDS011;2751;49.802;9.944;2023-02-22T07:42:20;6.90;;;5.67;;
5456;SDS011;2751;49.802;9.944;2023-02-22T07:44:47;7.50;;;5.83;;
5456;SDS011;2751;49.802;9.944;2023-02-22T07:47:14;8.63;;;7.63;;
5456;SDS011;2751;49.802;9.944;2023-02-22T07:49:41;9.70;;;5.50;;
5456;SDS011;2751;49.802;9.944;2023-02-22T07:52:09;6.50;;;5.90;;
5456;SDS011;2751;49.802;9.944;2023-02-22T07:54:36;6.40;;;5.80;;
5456;SDS011;2751;49.802;9.944;2023-02-22T07:57:03;6.40;;;5.80;;
5456;SDS011;2751;49.802;9.944;2023-02-22T07:59:30;6.80;;;6.20;;
5456;SDS011;2751;49.802;9.944;2023-02-22T08:01:58;8.27;;;6.17;;
5456;SDS011;2751;49.802;9.944;2023-02-22T08:04:24;6.63;;;6.00;;
5456;SDS011;2751;49.802;9.944;2023-02-22T08:06:51;7.93;;;6.17;;
5456;SDS011;2751;49.802;9.944;2023-02-22T08:09:19;6.43;;;5.83;;
5456;SDS011;2751;49.802;9.944;2023-02-22T08:11:47;7.13;;;6.50;;
5456;SDS011;2751;49.802;9.944;2023-02-22T08:14:14;7.43;;;6.60;;
5456;SDS011;2751;49.802;9.944;2023-02-22T08:16:41;6.70;;;6.10;;
5456;SDS011;2751;49.802;9.944;2023-02-22T08:19:08;5.10;;;4.70;;
5456;SDS011;2751;49.802;9.944;2023-02-22T08:21:35;5.80;;;5.30;;
5456;SDS011;2751;49.802;9.944;2023-02-22T08:24:02;5.57;;;5.07;;
5456;SDS011;2751;49.802;9.944;2023-02-22T08:26:31;5.83;;;5.23;;
5456;SDS011;2751;49.802;9.944;2023-02-22T08:28:58;5.80;;;5.30;;
5456;SDS011;2751;49.802;9.944;2023-02-22T08:31:24;6.00;;;5.40;;
5456;SDS011;2751;49.802;9.944;2023-02-22T08:33:51;5.80;;;5.30;;
5456;SDS011;2751;49.802;9.944;2023-02-22T08:36:18;6.83;;;5.53;;
5456;SDS011;2751;49.802;9.944;2023-02-22T08:38:45;6.00;;;5.50;;
5456;SDS011;2751;49.802;9.944;2023-02-22T08:41:12;6.47;;;5.87;;
5456;SDS011;2751;49.802;9.944;2023-02-22T08:43:40;6.07;;;5.20;;
5456;SDS011;2751;49.802;9.944;2023-02-22T08:46:07;6.70;;;5.73;;
5456;SDS011;2751;49.802;9.944;2023-02-22T08:48:34;7.30;;;6.60;;
5456;SDS011;2751;49.802;9.944;2023-02-22T08:51:01;6.83;;;6.23;;
5456;SDS011;2751;49.802;9.944;2023-02-22T08:53:27;6.73;;;6.13;;
5456;SDS011;2751;49.802;9.944;2023-02-22T08:55:56;6.70;;;6.10;;
5456;SDS011;2751;49.802;9.944;2023-02-22T08:58:23;6.00;;;5.50;;
5456;SDS011;2751;49.802;9.944;2023-02-22T09:00:51;6.73;;;6.10;;
5456;SDS011;2751;49.802;9.944;2023-02-22T09:03:18;8.30;;;7.13;;
5456;SDS011;2751;49.802;9.944;2023-02-22T09:05:45;7.80;;;6.43;;
5456;SDS011;2751;49.802;9.944;2023-02-22T09:08:14;6.67;;;6.00;;
5456;SDS011;2751;49.802;9.944;2023-02-22T09:10:41;9.07;;;6.80;;
5456;SDS011;2751;49.802;9.944;2023-02-22T09:13:09;10.77;;;7.37;;
5456;SDS011;2751;49.802;9.944;2023-02-22T09:15:37;11.40;;;7.70;;
5456;SDS011;2751;49.802;9.944;2023-02-22T09:18:07;9.93;;;7.73;;
5456;SDS011;2751;49.802;9.944;2023-02-22T09:20:35;7.97;;;7.20;;
5456;SDS011;2751;49.802;9.944;2023-02-22T09:23:03;8.60;;;7.70;;
5456;SDS011;2751;49.802;9.944;2023-02-22T09:25:31;8.93;;;7.97;;
5456;SDS011;2751;49.802;9.944;2023-02-22T09:27:58;10.57;;;8.03;;
5456;SDS011;2751;49.802;9.944;2023-02-22T09:30:26;9.53;;;8.63;;
5456;SDS011;2751;49.802;9.944;2023-02-22T09:32:57;9.17;;;8.20;;
5456;SDS011;2751;49.802;9.944;2023-02-22T09:35:26;9.90;;;8.87;;
5456;SDS011;2751;49.802;9.944;2023-02-22T09:37:54;8.50;;;7.60;;
5456;SDS011;2751;49.802;9.944;2023-02-22T09:40:22;9.43;;;7.43;;
5456;SDS011;2751;49.802;9.944;2023-02-22T09:43:05;10.30;;;8.30;;
5456;SDS011;2751;49.802;9.944;2023-02-22T09:45:40;10.10;;;7.90;;
5456;SDS011;2751;49.802;9.944;2023-02-22T09:48:13;10.30;;;7.47;;
5456;SDS011;2751;49.802;9.944;2023-02-22T09:50:44;9.27;;;8.37;;
5456;SDS011;2751;49.802;9.944;2023-02-22T09:53:16;9.67;;;8.63;;
5456;SDS011;2751;49.802;9.944;2023-02-22T09:55:53;10.20;;;8.37;;
5456;SDS011;2751;49.802;9.944;2023-02-22T09:58:26;12.73;;;8.73;;
5456;SDS011;2751;49.802;9.944;2023-02-22T10:01:00;9.97;;;8.93;;
5456;SDS011;2751;49.802;9.944;2023-02-22T10:03:46;9.13;;;8.33;;
5456;SDS011;2751;49.802;9.944;2023-02-22T10:06:18;9.10;;;7.90;;
5456;SDS011;2751;49.802;9.944;2023-02-22T10:08:47;9.77;;;7.83;;
5456;SDS011;2751;49.802;9.944;2023-02-22T10:11:19;9.00;;;7.50;;
5456;SDS011;2751;49.802;9.944;2023-02-22T10:14:04;8.90;;;7.77;;
5456;SDS011;2751;49.802;9.944;2023-02-22T10:16:50;8.07;;;7.27;;
5456;SDS011;2751;49.802;9.944;2023-02-22T10:19:24;11.20;;;8.87;;
5456;SDS011;2751;49.802;9.944;2023-02-22T10:22:14;9.00;;;8.20;;
5456;SDS011;2751;49.802;9.944;2023-02-22T10:24:58;12.37;;;9.73;;
5456;SDS011;2751;49.802;9.944;2023-02-22T10:27:29;10.23;;;9.03;;
5456;SDS011;2751;49.802;9.944;2023-02-22T10:29:59;11.27;;;9.10;;
5456;SDS011;2751;49.802;9.944;2023-02-22T10:32:35;13.53;;;9.50;;
5456;SDS011;2751;49.802;9.944;2023-02-22T10:35:12;12.60;;;9.87;;
5456;SDS011;2751;49.802;9.944;2023-02-22T10:37:46;11.40;;;9.97;;
5456;SDS011;2751;49.802;9.944;2023-02-22T10:40:17;11.73;;;9.93;;
5456;SDS011;2751;49.802;9.944;2023-02-22T10:42:47;13.70;;;10.17;;
5456;SDS011;2751;49.802;9.944;2023-02-22T10:45:17;11.33;;;10.20;;
5456;SDS011;2751;49.802;9.944;2023-02-22T10:47:47;16.03;;;9.87;;
5456;SDS011;2751;49.802;9.944;2023-02-22T10:50:15;10.70;;;9.13;;
5456;SDS011;2751;49.802;9.944;2023-02-22T10:52:44;11.63;;;10.43;;
5456;SDS011;2751;49.802;9.944;2023-02-22T10:55:13;11.30;;;9.40;;
5456;SDS011;2751;49.802;9.944;2023-02-22T10:57:42;12.30;;;9.87;;
5456;SDS011;2751;49.802;9.944;2023-02-22T11:00:16;11.63;;;10.43;;
5456;SDS011;2751;49.802;9.944;2023-02-22T11:02:51;11.90;;;10.70;;
5456;SDS011;2751;49.802;9.944;2023-02-22T11:05:30;10.87;;;9.60;;
5456;SDS011;2751;49.802;9.944;2023-02-22T11:08:24;9.57;;;8.67;;
5456;SDS011;2751;49.802;9.944;2023-02-22T11:10:53;10.83;;;9.73;;
5456;SDS011;2751;49.802;9.944;2023-02-22T11:13:26;10.73;;;9.20;;
5456;SDS011;2751;49.802;9.944;2023-02-22T11:15:54;11.30;;;9.43;;
5456;SDS011;2751;49.802;9.944;2023-02-22T11:18:25;95.07;;;55.43;;
5456;SDS011;2751;49.802;9.944;2023-02-22T11:20:58;11.83;;;9.93;;
5456;SDS011;2751;49.802;9.944;2023-02-22T11:23:30;11.40;;;9.37;;
5456;SDS011;2751;49.802;9.944;2023-02-22T11:26:04;12.20;;;10.07;;
5456;SDS011;2751;49.802;9.944;2023-02-22T11:28:33;10.47;;;9.50;;
5456;SDS011;2751;49.802;9.944;2023-02-22T11:31:09;10.60;;;9.20;;
5456;SDS011;2751;49.802;9.944;2023-02-22T11:33:38;12.13;;;9.67;;
5456;SDS011;2751;49.802;9.944;2023-02-22T11:36:16;10.37;;;8.87;;
5456;SDS011;2751;49.802;9.944;2023-02-22T11:38:57;11.37;;;9.70;;
5456;SDS011;2751;49.802;9.944;2023-02-22T11:41:25;9.53;;;8.67;;
5456;SDS011;2751;49.802;9.944;2023-02-22T11:43:53;10.13;;;9.13;;
5456;SDS011;2751;49.802;9.944;2023-02-22T11:46:40;14.23;;;9.40;;
5456;SDS011;2751;49.802;9.944;2023-02-22T11:49:09;10.00;;;9.10;;
5456;SDS011;2751;49.802;9.944;2023-02-22T11:51:47;10.37;;;9.17;;
5456;SDS011;2751;49.802;9.944;2023-02-22T11:54:25;9.83;;;8.77;;
5456;SDS011;2751;49.802;9.944;2023-02-22T11:57:05;9.70;;;8.70;;
5456;SDS011;2751;49.802;9.944;2023-02-22T11:59:40;9.70;;;8.70;;
5456;SDS011;2751;49.802;9.944;2023-02-22T12:02:22;17.60;;;8.80;;
5456;SDS011;2751;49.802;9.944;2023-02-22T12:05:03;9.27;;;8.37;;
5456;SDS011;2751;49.802;9.944;2023-02-22T12:07:45;9.53;;;8.53;;
5456;SDS011;2751;49.802;9.944;2023-02-22T12:10:22;9.20;;;8.30;;
5456;SDS011;2751;49.802;9.944;2023-02-22T12:13:06;12.13;;;10.83;;
5456;SDS011;2751;49.802;9.944;2023-02-22T12:15:43;11.63;;;8.30;;
5456;SDS011;2751;49.802;9.944;2023-02-22T12:18:19;10.30;;;7.67;;
5456;SDS011;2751;49.802;9.944;2023-02-22T12:20:52;8.93;;;7.83;;
5456;SDS011;2751;49.802;9.944;2023-02-22T12:23:23;9.13;;;8.03;;
5456;SDS011;2751;49.802;9.944;2023-02-22T12:25:59;9.43;;;7.97;;
5456;SDS011;2751;49.802;9.944;2023-02-22T12:28:31;8.40;;;7.60;;
5456;SDS011;2751;49.802;9.944;2023-02-22T12:31:04;10.40;;;7.83;;
5456;SDS011;2751;49.802;9.944;2023-02-22T12:33:41;8.80;;;7.90;;
5456;SDS011;2751;49.802;9.944;2023-02-22T12:36:16;9.87;;;8.00;;
5456;SDS011;2751;49.802;9.944;2023-02-22T12:38:47;8.63;;;7.03;;
5456;SDS011;2751;49.802;9.944;2023-02-22T12:41:21;11.40;;;9.13;;
5456;SDS011;2751;49.802;9.944;2023-02-22T12:43:53;12.70;;;7.87;;
5456;SDS011;2751;49.802;9.944;2023-02-22T12:46:28;7.97;;;6.97;;
5456;SDS011;2751;49.802;9.944;2023-02-22T12:48:59;8.97;;;6.97;;
5456;SDS011;2751;49.802;9.944;2023-02-22T12:51:33;6.93;;;6.20;;
5456;SDS011;2751;49.802;9.944;2023-02-22T12:54:09;9.67;;;7.43;;
5456;SDS011;2751;49.802;9.944;2023-02-22T12:56:44;10.37;;;7.13;;
5456;SDS011;2751;49.802;9.944;2023-02-22T12:59:18;6.57;;;5.97;;
5456;SDS011;2751;49.802;9.944;2023-02-22T13:01:51;6.20;;;5.60;;
5456;SDS011;2751;49.802;9.944;2023-02-22T13:04:22;9.67;;;6.77;;
5456;SDS011;2751;49.802;9.944;2023-02-22T13:06:52;6.57;;;5.80;;
5456;SDS011;2751;49.802;9.944;2023-02-22T13:09:31;9.33;;;6.13;;
5456;SDS011;2751;49.802;9.944;2023-02-22T13:12:12;7.87;;;6.20;;
5456;SDS011;2751;49.802;9.944;2023-02-22T13:14:48;8.93;;;5.63;;
5456;SDS011;2751;49.802;9.944;2023-02-22T13:17:21;10.00;;;5.57;;
5456;SDS011;2751;49.802;9.944;2023-02-22T13:19:55;7.03;;;5.60;;
5456;SDS011;2751;49.802;9.944;2023-02-22T13:22:28;6.50;;;5.90;;
5456;SDS011;2751;49.802;9.944;2023-02-22T13:25:03;10.47;;;5.70;;
5456;SDS011;2751;49.802;9.944;2023-02-22T13:27:40;6.23;;;5.63;;
5456;SDS011;2751;49.802;9.944;2023-02-22T13:30:16;8.50;;;5.43;;
5456;SDS011;2751;49.802;9.944;2023-02-22T13:33:00;7.93;;;5.80;;
5456;SDS011;2751;49.802;9.944;2023-02-22T13:35:44;6.90;;;5.43;;
5456;SDS011;2751;49.802;9.944;2023-02-22T13:38:27;6.77;;;5.37;;
5456;SDS011;2751;49.802;9.944;2023-02-22T13:41:21;7.60;;;6.27;;
5456;SDS011;2751;49.802;9.944;2023-02-22T13:44:29;6.33;;;5.73;;
5456;SDS011;2751;49.802;9.944;2023-02-22T13:50:25;7.10;;;6.10;;
5456;SDS011;2751;49.802;9.944;2023-02-22T13:53:02;7.87;;;5.40;;
5456;SDS011;2751;49.802;9.944;2023-02-22T13:55:33;20.67;;;18.37;;
5456;SDS011;2751;49.802;9.944;2023-02-22T13:58:04;7.50;;;5.67;;
5456;SDS011;2751;49.802;9.944;2023-02-22T14:00:43;7.20;;;5.83;;
5456;SDS011;2751;49.802;9.944;2023-02-22T14:03:27;6.73;;;6.00;;
5456;SDS011;2751;49.802;9.944;2023-02-22T14:06:02;7.70;;;5.20;;
5456;SDS011;2751;49.802;9.944;2023-02-22T14:08:42;6.23;;;5.57;;
5456;SDS011;2751;49.802;9.944;2023-02-22T14:14:18;6.40;;;5.40;;
5456;SDS011;2751;49.802;9.944;2023-02-22T14:22:54;17.47;;;5.30;;
5456;SDS011;2751;49.802;9.944;2023-02-22T14:25:32;6.03;;;5.40;;
5456;SDS011;2751;49.802;9.944;2023-02-22T14:28:02;6.73;;;5.57;;
5456;SDS011;2751;49.802;9.944;2023-02-22T14:30:31;6.63;;;5.37;;
5456;SDS011;2751;49.802;9.944;2023-02-22T14:33:03;8.30;;;5.33;;
5456;SDS011;2751;49.802;9.944;2023-02-22T14:36:08;14.00;;;5.60;;
5456;SDS011;2751;49.802;9.944;2023-02-22T14:38:35;6.80;;;5.00;;
5456;SDS011;2751;49.802;9.944;2023-02-22T14:41:02;6.60;;;5.10;;
5456;SDS011;2751;49.802;9.944;2023-02-22T14:43:33;8.60;;;5.50;;
5456;SDS011;2751;49.802;9.944;2023-02-22T14:46:02;13.50;;;5.60;;
5456;SDS011;2751;49.802;9.944;2023-02-22T14:48:33;7.10;;;5.50;;
5456;SDS011;2751;49.802;9.944;2023-02-22T14:51:04;5.40;;;4.90;;
5456;SDS011;2751;49.802;9.944;2023-02-22T14:53:39;5.33;;;4.53;;
5456;SDS011;2751;49.802;9.944;2023-02-22T14:56:13;5.33;;;4.83;;
5456;SDS011;2751;49.802;9.944;2023-02-22T14:58:45;7.07;;;5.00;;
5456;SDS011;2751;49.802;9.944;2023-02-22T15:01:24;5.40;;;4.90;;
5456;SDS011;2751;49.802;9.944;2023-02-22T15:03:55;5.63;;;4.57;;
5456;SDS011;2751;49.802;9.944;2023-02-22T15:06:24;8.63;;;6.57;;
5456;SDS011;2751;49.802;9.944;2023-02-22T15:09:03;8.00;;;4.73;;
5456;SDS011;2751;49.802;9.944;2023-02-22T15:11:33;7.20;;;4.50;;
5456;SDS011;2751;49.802;9.944;2023-02-22T15:14:00;5.50;;;5.00;;
5456;SDS011;2751;49.802;9.944;2023-02-22T15:16:28;8.03;;;5.40;;
5456;SDS011;2751;49.802;9.944;2023-02-22T15:18:59;5.60;;;5.00;;
5456;SDS011;2751;49.802;9.944;2023-02-22T15:21:31;7.67;;;5.90;;
5456;SDS011;2751;49.802;9.944;2023-02-22T15:24:01;13.10;;;6.60;;
5456;SDS011;2751;49.802;9.944;2023-02-22T15:26:31;7.90;;;6.67;;
5456;SDS011;2751;49.802;9.944;2023-02-22T15:29:00;8.30;;;7.13;;
5456;SDS011;2751;49.802;9.944;2023-02-22T15:31:33;10.07;;;7.00;;
5456;SDS011;2751;49.802;9.944;2023-02-22T15:34:19;18.63;;;6.80;;
5456;SDS011;2751;49.802;9.944;2023-02-22T15:36:51;16.60;;;8.07;;
5456;SDS011;2751;49.802;9.944;2023-02-22T15:39:21;9.20;;;7.00;;
5456;SDS011;2751;49.802;9.944;2023-02-22T15:42:04;11.20;;;7.40;;
5456;SDS011;2751;49.802;9.944;2023-02-22T15:44:33;12.87;;;6.23;;
5456;SDS011;2751;49.802;9.944;2023-02-22T15:47:02;10.30;;;7.10;;